sensor_id;sensor_type;location;lat;lon;timestamp;pressure;altitude;pressure_sealevel;temperature;humidity
34983;BME280;21187;50.976;13.720;2022-12-07T00:04:32;97996.94;;;3.91;67.34
34983;BME280;21187;50.976;13.720;2022-12-07T00:09:34;97985.34;;;4.04;66.90
34983;BME280;21187;50.976;13.720;2022-12-07T00:14:35;97978.72;;;4.10;66.59
34983;BME280;21187;50.976;13.720;2022-12-07T00:19:37;97975.06;;;3.97;66.18
34983;BME280;21187;50.976;13.720;2022-12-07T00:24:39;97981.47;;;3.88;67.10
34983;BME280;21187;50.976;13.720;2022-12-07T00:29:41;97967.78;;;3.89;66.74
34983;BME280;21187;50.976;13.720;2022-12-07T00:34:42;97972.84;;;3.91;66.45
34983;BME280;21187;50.976;13.720;2022-12-07T00:39:45;97964.22;;;4.03;66.03
34983;BME280;21187;50.976;13.720;2022-12-07T00:44:48;97966.72;;;3.99;65.88
34983;BME280;21187;50.976;13.720;2022-12-07T00:49:49;97954.09;;;3.91;65.73
34983;BME280;21187;50.976;13.720;2022-12-07T00:54:51;97955.38;;;4.02;66.02
34983;BME280;21187;50.976;13.720;2022-12-07T00:59:53;97957.28;;;4.10;65.81
34983;BME280;21187;50.976;13.720;2022-12-07T01:04:59;97959.97;;;4.19;65.08
34983;BME280;21187;50.976;13.720;2022-12-07T01:10:01;97955.38;;;4.02;65.63
34983;BME280;21187;50.976;13.720;2022-12-07T01:15:03;97954.69;;;3.88;65.99
34983;BME280;21187;50.976;13.720;2022-12-07T01:20:06;97949.50;;;3.91;66.07
34983;BME280;21187;50.976;13.720;2022-12-07T01:25:10;97950.28;;;3.92;66.25
34983;BME280;21187;50.976;13.720;2022-12-07T01:30:12;97951.88;;;3.93;66.13
34983;BME280;21187;50.976;13.720;2022-12-07T01:35:14;97960.06;;;3.88;65.41
34983;BME280;21187;50.976;13.720;2022-12-07T01:40:17;97953.41;;;3.76;65.75
34983;BME280;21187;50.976;13.720;2022-12-07T01:45:38;97950.25;;;3.74;65.93
34983;BME280;21187;50.976;13.720;2022-12-07T01:50:41;97949.19;;;3.84;65.56
34983;BME280;21187;50.976;13.720;2022-12-07T01:55:45;97946.66;;;3.88;64.93
34983;BME280;21187;50.976;13.720;2022-12-07T02:00:48;97951.13;;;3.61;66.28
34983;BME280;21187;50.976;13.720;2022-12-07T02:05:51;97955.88;;;3.64;66.15
34983;BME280;21187;50.976;13.720;2022-12-07T02:10:52;97954.16;;;3.68;65.46
34983;BME280;21187;50.976;13.720;2022-12-07T02:21:12;97937.94;;;3.73;65.49
34983;BME280;21187;50.976;13.720;2022-12-07T02:31:36;97930.56;;;3.79;65.18
34983;BME280;21187;50.976;13.720;2022-12-07T02:36:44;97932.13;;;3.80;65.56
34983;BME280;21187;50.976;13.720;2022-12-07T02:41:53;97930.13;;;3.86;65.03
34983;BME280;21187;50.976;13.720;2022-12-07T02:47:01;97927.28;;;3.91;65.09
34983;BME280;21187;50.976;13.720;2022-12-07T02:52:04;97915.16;;;3.93;64.87
34983;BME280;21187;50.976;13.720;2022-12-07T03:13:11;97904.38;;;3.67;65.01
34983;BME280;21187;50.976;13.720;2022-12-07T03:18:16;97901.69;;;3.67;64.88
34983;BME280;21187;50.976;13.720;2022-12-07T03:23:21;97892.53;;;3.68;65.31
34983;BME280;21187;50.976;13.720;2022-12-07T03:28:29;97893.81;;;3.62;64.52
34983;BME280;21187;50.976;13.720;2022-12-07T03:33:40;97869.50;;;3.49;65.14
34983;BME280;21187;50.976;13.720;2022-12-07T03:38:57;97875.47;;;3.46;65.28
34983;BME280;21187;50.976;13.720;2022-12-07T03:44:02;97875.75;;;3.36;64.57
34983;BME280;21187;50.976;13.720;2022-12-07T03:49:18;97873.25;;;3.40;64.71
34983;BME280;21187;50.976;13.720;2022-12-07T03:59:38;97873.91;;;3.45;64.87
34983;BME280;21187;50.976;13.720;2022-12-07T04:04:41;97869.16;;;3.42;64.54
34983;BME280;21187;50.976;13.720;2022-12-07T04:09:44;97867.41;;;3.38;64.12
34983;BME280;21187;50.976;13.720;2022-12-07T04:14:46;97866.91;;;3.27;64.31
34983;BME280;21187;50.976;13.720;2022-12-07T04:19:48;97850.84;;;3.27;64.80
34983;BME280;21187;50.976;13.720;2022-12-07T04:24:50;97844.53;;;3.23;64.43
34983;BME280;21187;50.976;13.720;2022-12-07T04:29:52;97845.75;;;3.16;64.76
34983;BME280;21187;50.976;13.720;2022-12-07T04:34:54;97833.66;;;3.19;64.86
34983;BME280;21187;50.976;13.720;2022-12-07T04:39:56;97829.38;;;3.09;64.08
34983;BME280;21187;50.976;13.720;2022-12-07T04:44:58;97829.50;;;3.04;64.91
34983;BME280;21187;50.976;13.720;2022-12-07T04:50:00;97814.53;;;3.03;64.78
34983;BME280;21187;50.976;13.720;2022-12-07T04:55:03;97808.59;;;3.06;64.14
34983;BME280;21187;50.976;13.720;2022-12-07T05:00:05;97799.59;;;3.02;64.14
34983;BME280;21187;50.976;13.720;2022-12-07T05:05:07;97795.13;;;2.89;64.72
34983;BME280;21187;50.976;13.720;2022-12-07T05:10:09;97793.53;;;2.88;64.83
34983;BME280;21187;50.976;13.720;2022-12-07T05:15:13;97787.28;;;2.92;64.20
34983;BME280;21187;50.976;13.720;2022-12-07T05:20:15;97789.31;;;2.87;64.22
34983;BME280;21187;50.976;13.720;2022-12-07T05:25:17;97785.81;;;2.77;64.65
34983;BME280;21187;50.976;13.720;2022-12-07T05:30:19;97783.59;;;2.79;64.47
34983;BME280;21187;50.976;13.720;2022-12-07T05:35:21;97781.75;;;2.89;63.73
34983;BME280;21187;50.976;13.720;2022-12-07T05:40:23;97783.06;;;3.00;63.82
34983;BME280;21187;50.976;13.720;2022-12-07T05:45:25;97778.03;;;3.07;63.92
34983;BME280;21187;50.976;13.720;2022-12-07T05:50:27;97774.91;;;3.05;63.84
34983;BME280;21187;50.976;13.720;2022-12-07T05:55:35;97759.31;;;2.98;63.90
34983;BME280;21187;50.976;13.720;2022-12-07T06:00:37;97755.38;;;2.96;63.76
34983;BME280;21187;50.976;13.720;2022-12-07T06:05:39;97748.47;;;3.04;63.07
34983;BME280;21187;50.976;13.720;2022-12-07T06:10:41;97752.88;;;3.08;63.26
34983;BME280;21187;50.976;13.720;2022-12-07T06:15:43;97757.59;;;3.11;63.19
34983;BME280;21187;50.976;13.720;2022-12-07T06:20:45;97747.06;;;3.15;62.54
34983;BME280;21187;50.976;13.720;2022-12-07T06:25:47;97741.88;;;3.19;62.83
34983;BME280;21187;50.976;13.720;2022-12-07T06:30:57;97744.41;;;3.24;62.61
34983;BME280;21187;50.976;13.720;2022-12-07T06:36:00;97742.84;;;3.23;62.87
34983;BME280;21187;50.976;13.720;2022-12-07T06:41:02;97740.03;;;3.28;62.83
34983;BME280;21187;50.976;13.720;2022-12-07T06:46:03;97749.50;;;3.34;62.81
34983;BME280;21187;50.976;13.720;2022-12-07T06:51:06;97748.38;;;3.35;63.40
34983;BME280;21187;50.976;13.720;2022-12-07T06:56:08;97760.19;;;3.34;64.11
34983;BME280;21187;50.976;13.720;2022-12-07T07:01:11;97752.13;;;3.25;64.77
34983;BME280;21187;50.976;13.720;2022-12-07T07:06:14;97751.50;;;3.28;64.72
34983;BME280;21187;50.976;13.720;2022-12-07T07:11:16;97750.59;;;3.33;64.51
34983;BME280;21187;50.976;13.720;2022-12-07T07:16:18;97748.22;;;3.40;65.41
34983;BME280;21187;50.976;13.720;2022-12-07T07:21:21;97760.66;;;3.36;65.16
34983;BME280;21187;50.976;13.720;2022-12-07T07:26:22;97767.41;;;3.25;65.88
34983;BME280;21187;50.976;13.720;2022-12-07T07:31:24;97771.19;;;3.24;66.07
34983;BME280;21187;50.976;13.720;2022-12-07T07:36:26;97777.31;;;3.15;66.15
34983;BME280;21187;50.976;13.720;2022-12-07T07:41:28;97775.91;;;3.18;66.52
34983;BME280;21187;50.976;13.720;2022-12-07T07:46:30;97781.88;;;3.24;66.42
34983;BME280;21187;50.976;13.720;2022-12-07T07:51:32;97771.50;;;3.31;66.43
34983;BME280;21187;50.976;13.720;2022-12-07T07:56:34;97804.56;;;3.35;66.81
34983;BME280;21187;50.976;13.720;2022-12-07T08:01:36;97789.81;;;3.46;66.87
34983;BME280;21187;50.976;13.720;2022-12-07T08:06:38;97785.88;;;3.44;67.38
34983;BME280;21187;50.976;13.720;2022-12-07T08:11:40;97783.81;;;3.49;67.36
34983;BME280;21187;50.976;13.720;2022-12-07T08:16:42;97793.44;;;3.50;67.62
34983;BME280;21187;50.976;13.720;2022-12-07T08:21:44;97790.47;;;3.61;67.25
34983;BME280;21187;50.976;13.720;2022-12-07T08:26:46;97784.00;;;3.71;66.90
34983;BME280;21187;50.976;13.720;2022-12-07T08:31:48;97776.00;;;3.79;66.82
34983;BME280;21187;50.976;13.720;2022-12-07T08:36:49;97773.47;;;3.92;66.51
34983;BME280;21187;50.976;13.720;2022-12-07T08:41:51;97781.34;;;3.97;66.74
34983;BME280;21187;50.976;13.720;2022-12-07T08:46:57;97778.19;;;4.12;66.48
34983;BME280;21187;50.976;13.720;2022-12-07T08:52:01;97778.03;;;4.18;66.55
34983;BME280;21187;50.976;13.720;2022-12-07T08:57:05;97774.72;;;4.21;65.94
34983;BME280;21187;50.976;13.720;2022-12-07T09:02:08;97776.63;;;4.29;66.07
34983;BME280;21187;50.976;13.720;2022-12-07T09:07:10;97777.53;;;4.42;66.42
34983;BME280;21187;50.976;13.720;2022-12-07T09:12:12;97781.47;;;4.53;65.48
34983;BME280;21187;50.976;13.720;2022-12-07T09:17:14;97787.56;;;4.71;65.48
34983;BME280;21187;50.976;13.720;2022-12-07T09:22:17;97777.06;;;4.96;65.17
34983;BME280;21187;50.976;13.720;2022-12-07T09:27:18;97767.13;;;4.96;64.60
34983;BME280;21187;50.976;13.720;2022-12-07T09:32:20;97778.19;;;4.95;64.42
34983;BME280;21187;50.976;13.720;2022-12-07T09:37:23;97772.81;;;4.95;64.45
34983;BME280;21187;50.976;13.720;2022-12-07T09:42:44;97775.75;;;5.11;63.95
34983;BME280;21187;50.976;13.720;2022-12-07T09:47:49;97778.84;;;5.22;63.58
34983;BME280;21187;50.976;13.720;2022-12-07T09:52:52;97780.53;;;5.26;63.90
34983;BME280;21187;50.976;13.720;2022-12-07T09:57:57;97772.72;;;5.42;63.27
34983;BME280;21187;50.976;13.720;2022-12-07T10:03:01;97774.28;;;5.43;62.54
34983;BME280;21187;50.976;13.720;2022-12-07T10:08:04;97771.03;;;5.38;62.95
34983;BME280;21187;50.976;13.720;2022-12-07T10:13:20;97757.56;;;5.46;62.56
34983;BME280;21187;50.976;13.720;2022-12-07T10:23:35;97746.81;;;5.46;62.05
34983;BME280;21187;50.976;13.720;2022-12-07T10:28:37;97758.28;;;5.56;62.30
34983;BME280;21187;50.976;13.720;2022-12-07T10:33:54;97744.19;;;5.59;62.06
34983;BME280;21187;50.976;13.720;2022-12-07T10:39:04;97744.31;;;5.62;61.80
34983;BME280;21187;50.976;13.720;2022-12-07T10:44:22;97759.59;;;5.71;61.53
34983;BME280;21187;50.976;13.720;2022-12-07T10:49:46;97749.09;;;5.57;61.79
34983;BME280;21187;50.976;13.720;2022-12-07T11:00:16;97740.31;;;5.47;62.13
34983;BME280;21187;50.976;13.720;2022-12-07T11:11:13;97725.31;;;5.46;62.61
34983;BME280;21187;50.976;13.720;2022-12-07T11:38:20;97726.34;;;5.33;63.32
34983;BME280;21187;50.976;13.720;2022-12-07T11:43:32;97720.03;;;5.29;63.05
34983;BME280;21187;50.976;13.720;2022-12-07T11:48:50;97712.56;;;5.13;63.60
34983;BME280;21187;50.976;13.720;2022-12-07T11:54:05;97714.78;;;5.11;64.20
34983;BME280;21187;50.976;13.720;2022-12-07T11:59:19;97714.13;;;5.14;64.20
34983;BME280;21187;50.976;13.720;2022-12-07T12:10:06;97705.88;;;5.20;64.71
34983;BME280;21187;50.976;13.720;2022-12-07T12:20:47;97701.97;;;5.38;63.81
34983;BME280;21187;50.976;13.720;2022-12-07T12:26:00;97697.66;;;5.25;63.93
34983;BME280;21187;50.976;13.720;2022-12-07T12:46:38;97701.94;;;5.17;63.36
34983;BME280;21187;50.976;13.720;2022-12-07T12:51:56;97697.47;;;5.00;63.78
34983;BME280;21187;50.976;13.720;2022-12-07T12:57:19;97699.97;;;4.75;64.09
34983;BME280;21187;50.976;13.720;2022-12-07T13:02:32;97694.50;;;4.63;64.15
34983;BME280;21187;50.976;13.720;2022-12-07T13:23:38;97679.47;;;4.71;64.60
34983;BME280;21187;50.976;13.720;2022-12-07T13:28:43;97675.50;;;4.77;64.38
34983;BME280;21187;50.976;13.720;2022-12-07T13:33:47;97672.31;;;4.83;65.07
34983;BME280;21187;50.976;13.720;2022-12-07T13:38:59;97668.16;;;4.95;65.45
34983;BME280;21187;50.976;13.720;2022-12-07T13:44:08;97662.88;;;5.07;65.34
34983;BME280;21187;50.976;13.720;2022-12-07T13:54:22;97682.34;;;5.25;65.03
34983;BME280;21187;50.976;13.720;2022-12-07T13:59:25;97679.13;;;5.32;64.92
34983;BME280;21187;50.976;13.720;2022-12-07T14:04:34;97681.41;;;5.42;65.00
34983;BME280;21187;50.976;13.720;2022-12-07T14:09:37;97688.69;;;5.42;65.01
34983;BME280;21187;50.976;13.720;2022-12-07T14:14:46;97681.88;;;5.44;64.88
34983;BME280;21187;50.976;13.720;2022-12-07T14:19:57;97689.03;;;5.40;64.80
34983;BME280;21187;50.976;13.720;2022-12-07T14:30:15;97684.75;;;5.39;64.42
34983;BME280;21187;50.976;13.720;2022-12-07T14:35:18;97676.75;;;5.30;64.48
34983;BME280;21187;50.976;13.720;2022-12-07T14:40:23;97665.44;;;5.25;64.30
34983;BME280;21187;50.976;13.720;2022-12-07T14:45:25;97674.41;;;5.29;63.32
34983;BME280;21187;50.976;13.720;2022-12-07T14:50:27;97668.19;;;5.37;63.43
34983;BME280;21187;50.976;13.720;2022-12-07T14:55:31;97663.03;;;5.32;63.07
34983;BME280;21187;50.976;13.720;2022-12-07T15:00:33;97680.25;;;5.31;63.23
34983;BME280;21187;50.976;13.720;2022-12-07T15:05:36;97679.97;;;5.24;63.00
34983;BME280;21187;50.976;13.720;2022-12-07T15:10:38;97682.19;;;5.22;62.93
34983;BME280;21187;50.976;13.720;2022-12-07T15:15:41;97680.81;;;5.15;63.26
34983;BME280;21187;50.976;13.720;2022-12-07T15:20:44;97682.38;;;5.16;63.28
34983;BME280;21187;50.976;13.720;2022-12-07T15:25:47;97678.84;;;5.25;63.19
34983;BME280;21187;50.976;13.720;2022-12-07T15:30:49;97675.25;;;5.21;63.07
34983;BME280;21187;50.976;13.720;2022-12-07T15:35:51;97685.34;;;5.24;62.64
34983;BME280;21187;50.976;13.720;2022-12-07T15:40:53;97684.22;;;5.25;63.10
34983;BME280;21187;50.976;13.720;2022-12-07T15:45:55;97685.50;;;5.19;63.10
34983;BME280;21187;50.976;13.720;2022-12-07T15:51:08;97676.69;;;5.18;62.77
34983;BME280;21187;50.976;13.720;2022-12-07T15:56:10;97668.97;;;5.16;62.82
34983;BME280;21187;50.976;13.720;2022-12-07T16:01:17;97672.75;;;5.15;62.95
34983;BME280;21187;50.976;13.720;2022-12-07T16:06:19;97682.84;;;5.19;62.55
34983;BME280;21187;50.976;13.720;2022-12-07T16:11:21;97679.50;;;5.22;62.81
34983;BME280;21187;50.976;13.720;2022-12-07T16:16:23;97679.56;;;5.13;62.52
34983;BME280;21187;50.976;13.720;2022-12-07T16:21:25;97672.81;;;5.07;62.75
34983;BME280;21187;50.976;13.720;2022-12-07T16:26:27;97683.41;;;5.03;62.44
34983;BME280;21187;50.976;13.720;2022-12-07T16:31:29;97684.66;;;5.06;62.41
34983;BME280;21187;50.976;13.720;2022-12-07T16:36:31;97681.50;;;5.04;62.58
34983;BME280;21187;50.976;13.720;2022-12-07T16:41:53;97681.25;;;4.96;62.59
34983;BME280;21187;50.976;13.720;2022-12-07T16:46:54;97681.63;;;4.86;62.73
34983;BME280;21187;50.976;13.720;2022-12-07T16:51:56;97682.28;;;4.83;62.38
34983;BME280;21187;50.976;13.720;2022-12-07T16:57:18;97692.75;;;4.97;62.52
34983;BME280;21187;50.976;13.720;2022-12-07T17:02:24;97698.97;;;4.89;62.61
34983;BME280;21187;50.976;13.720;2022-12-07T17:07:26;97687.50;;;4.79;62.35
34983;BME280;21187;50.976;13.720;2022-12-07T17:12:28;97691.94;;;4.75;62.50
34983;BME280;21187;50.976;13.720;2022-12-07T17:17:30;97688.00;;;4.73;63.00
34983;BME280;21187;50.976;13.720;2022-12-07T17:22:32;97694.00;;;4.70;63.08
34983;BME280;21187;50.976;13.720;2022-12-07T17:27:34;97688.50;;;4.66;63.24
34983;BME280;21187;50.976;13.720;2022-12-07T17:32:36;97686.25;;;4.68;63.42
34983;BME280;21187;50.976;13.720;2022-12-07T17:37:38;97696.38;;;4.71;62.99
34983;BME280;21187;50.976;13.720;2022-12-07T17:42:40;97691.34;;;4.61;63.73
34983;BME280;21187;50.976;13.720;2022-12-07T17:47:43;97693.13;;;4.57;63.33
34983;BME280;21187;50.976;13.720;2022-12-07T17:52:44;97697.53;;;4.53;62.99
34983;BME280;21187;50.976;13.720;2022-12-07T17:58:05;97697.72;;;4.47;63.47
34983;BME280;21187;50.976;13.720;2022-12-07T18:03:07;97689.97;;;4.46;63.87
34983;BME280;21187;50.976;13.720;2022-12-07T18:08:11;97691.41;;;4.43;63.08
34983;BME280;21187;50.976;13.720;2022-12-07T18:13:13;97698.34;;;4.44;63.26
34983;BME280;21187;50.976;13.720;2022-12-07T18:18:34;97697.25;;;4.45;63.07
34983;BME280;21187;50.976;13.720;2022-12-07T18:23:36;97714.94;;;4.38;63.37
34983;BME280;21187;50.976;13.720;2022-12-07T18:28:39;97716.06;;;4.28;64.35
34983;BME280;21187;50.976;13.720;2022-12-07T18:33:43;97707.84;;;4.33;63.43
34983;BME280;21187;50.976;13.720;2022-12-07T18:38:45;97711.63;;;4.32;63.72
34983;BME280;21187;50.976;13.720;2022-12-07T18:43:47;97710.53;;;4.24;63.48
34983;BME280;21187;50.976;13.720;2022-12-07T18:48:49;97720.34;;;4.11;63.69
34983;BME280;21187;50.976;13.720;2022-12-07T18:53:52;97713.59;;;4.05;63.52
34983;BME280;21187;50.976;13.720;2022-12-07T18:59:01;97706.50;;;4.00;63.56
34983;BME280;21187;50.976;13.720;2022-12-07T19:04:23;97698.94;;;3.94;64.17
34983;BME280;21187;50.976;13.720;2022-12-07T19:09:25;97705.09;;;3.86;64.05
34983;BME280;21187;50.976;13.720;2022-12-07T19:14:32;97715.00;;;3.85;64.50
34983;BME280;21187;50.976;13.720;2022-12-07T19:19:38;97708.22;;;3.88;64.36
34983;BME280;21187;50.976;13.720;2022-12-07T19:24:42;97692.00;;;3.93;64.28
34983;BME280;21187;50.976;13.720;2022-12-07T19:29:48;97692.63;;;3.98;64.00
34983;BME280;21187;50.976;13.720;2022-12-07T19:34:50;97689.81;;;3.95;64.49
34983;BME280;21187;50.976;13.720;2022-12-07T19:39:52;97700.03;;;3.93;64.11
34983;BME280;21187;50.976;13.720;2022-12-07T19:44:54;97691.84;;;3.98;64.80
34983;BME280;21187;50.976;13.720;2022-12-07T19:49:56;97692.63;;;3.98;64.57
34983;BME280;21187;50.976;13.720;2022-12-07T19:54:58;97699.72;;;4.03;64.80
34983;BME280;21187;50.976;13.720;2022-12-07T20:00:00;97687.25;;;4.07;64.24
34983;BME280;21187;50.976;13.720;2022-12-07T20:05:05;97693.22;;;4.13;63.81
34983;BME280;21187;50.976;13.720;2022-12-07T20:10:08;97677.28;;;4.16;64.39
34983;BME280;21187;50.976;13.720;2022-12-07T20:15:11;97689.88;;;4.25;63.53
34983;BME280;21187;50.976;13.720;2022-12-07T20:20:13;97684.53;;;4.25;64.22
34983;BME280;21187;50.976;13.720;2022-12-07T20:25:16;97673.81;;;4.25;64.02
34983;BME280;21187;50.976;13.720;2022-12-07T20:30:20;97676.97;;;4.27;63.63
34983;BME280;21187;50.976;13.720;2022-12-07T20:35:23;97683.75;;;4.24;63.45
34983;BME280;21187;50.976;13.720;2022-12-07T20:40:25;97676.47;;;4.25;63.29
34983;BME280;21187;50.976;13.720;2022-12-07T20:45:27;97671.44;;;4.23;63.81
34983;BME280;21187;50.976;13.720;2022-12-07T20:50:29;97677.28;;;4.16;63.56
34983;BME280;21187;50.976;13.720;2022-12-07T20:55:31;97671.16;;;4.16;63.42
34983;BME280;21187;50.976;13.720;2022-12-07T21:00:34;97666.56;;;4.16;63.44
34983;BME280;21187;50.976;13.720;2022-12-07T21:05:36;97679.19;;;4.16;63.50
34983;BME280;21187;50.976;13.720;2022-12-07T21:10:39;97675.59;;;4.12;63.21
34983;BME280;21187;50.976;13.720;2022-12-07T21:15:41;97669.44;;;4.11;63.28
34983;BME280;21187;50.976;13.720;2022-12-07T21:20:43;97660.28;;;4.12;63.46
34983;BME280;21187;50.976;13.720;2022-12-07T21:25:45;97667.69;;;4.15;63.25
34983;BME280;21187;50.976;13.720;2022-12-07T21:30:47;97666.13;;;4.14;63.64
34983;BME280;21187;50.976;13.720;2022-12-07T21:36:11;97661.22;;;4.16;63.52
34983;BME280;21187;50.976;13.720;2022-12-07T21:41:21;97663.56;;;4.18;62.88
34983;BME280;21187;50.976;13.720;2022-12-07T21:46:26;97659.47;;;4.21;63.03
34983;BME280;21187;50.976;13.720;2022-12-07T21:51:35;97660.88;;;4.27;62.61
34983;BME280;21187;50.976;13.720;2022-12-07T21:56:40;97649.97;;;4.32;62.40
34983;BME280;21187;50.976;13.720;2022-12-07T22:01:43;97652.34;;;4.25;62.63
34983;BME280;21187;50.976;13.720;2022-12-07T22:06:50;97648.41;;;4.22;62.87
34983;BME280;21187;50.976;13.720;2022-12-07T22:11:53;97650.81;;;4.24;62.67
34983;BME280;21187;50.976;13.720;2022-12-07T22:16:55;97662.13;;;4.29;62.61
34983;BME280;21187;50.976;13.720;2022-12-07T22:21:58;97661.34;;;4.29;62.71
34983;BME280;21187;50.976;13.720;2022-12-07T22:27:00;97664.03;;;4.29;63.01
34983;BME280;21187;50.976;13.720;2022-12-07T22:32:02;97664.81;;;4.29;62.68
34983;BME280;21187;50.976;13.720;2022-12-07T22:37:26;97656.44;;;4.31;62.63
34983;BME280;21187;50.976;13.720;2022-12-07T22:42:28;97654.41;;;4.28;62.20
34983;BME280;21187;50.976;13.720;2022-12-07T22:47:30;97648.41;;;4.31;62.23
34983;BME280;21187;50.976;13.720;2022-12-07T22:52:31;97646.19;;;4.33;62.56
34983;BME280;21187;50.976;13.720;2022-12-07T22:57:33;97644.28;;;4.33;62.38
34983;BME280;21187;50.976;13.720;2022-12-07T23:02:35;97638.16;;;4.33;62.56
34983;BME280;21187;50.976;13.720;2022-12-07T23:07:37;97644.16;;;4.30;62.17
34983;BME280;21187;50.976;13.720;2022-12-07T23:12:39;97641.97;;;4.23;62.09
34983;BME280;21187;50.976;13.720;2022-12-07T23:18:00;97644.81;;;4.18;62.75
34983;BME280;21187;50.976;13.720;2022-12-07T23:23:01;97639.78;;;4.16;62.69
34983;BME280;21187;50.976;13.720;2022-12-07T23:28:03;97635.34;;;4.21;62.34
34983;BME280;21187;50.976;13.720;2022-12-07T23:33:05;97629.97;;;4.21;62.59
34983;BME280;21187;50.976;13.720;2022-12-07T23:38:07;97626.03;;;4.27;62.16
34983;BME280;21187;50.976;13.720;2022-12-07T23:43:09;97629.38;;;4.24;62.21
34983;BME280;21187;50.976;13.720;2022-12-07T23:48:11;97622.41;;;4.23;62.65
34983;BME280;21187;50.976;13.720;2022-12-07T23:53:13;97614.38;;;4.23;62.70
34983;BME280;21187;50.976;13.720;2022-12-07T23:58:14;97616.41;;;4.26;62.67
